createdAt,value
2018-05-16T00:01:21.791Z,22.09
2018-05-16T00:03:58.612Z,22.16
2018-05-16T00:06:29.122Z,22.11
2018-05-16T00:09:11.624Z,22.13
2018-05-16T00:11:44.454Z,22.12
2018-05-16T00:14:15.680Z,22.03
2018-05-16T00:16:52.563Z,21.92
2018-05-16T00:19:23.699Z,21.94
2018-05-16T00:22:06.334Z,21.92
2018-05-16T00:24:37.233Z,21.86
2018-05-16T00:29:51.483Z,22.02
2018-05-16T00:32:23.416Z,21.92
2018-05-16T00:34:54.260Z,21.89
2018-05-16T00:37:28.006Z,21.84
2018-05-16T00:40:10.364Z,21.77
2018-05-16T00:42:40.812Z,21.62
2018-05-16T00:45:25.341Z,21.49
2018-05-16T00:47:55.944Z,21.35
2018-05-16T00:50:27.664Z,21.37
2018-05-16T00:53:08.596Z,21.36
2018-05-16T00:55:39.377Z,21.32
2018-05-16T00:58:10.063Z,21.26
2018-05-16T01:00:40.618Z,21.37
2018-05-16T01:03:15.270Z,21.15
2018-05-16T01:05:46.724Z,21.12
2018-05-16T01:08:19.195Z,21.05
2018-05-16T01:10:50.916Z,21.00
2018-05-16T01:13:21.337Z,20.93
2018-05-16T01:15:52.270Z,20.86
2018-05-16T01:18:30.644Z,20.78
2018-05-16T01:21:06.600Z,20.90
2018-05-16T01:23:36.880Z,21.03
2018-05-16T01:26:07.615Z,21.06
2018-05-16T01:28:39.820Z,21.00
2018-05-16T01:31:10.819Z,20.90
2018-05-16T01:33:41.774Z,20.93
2018-05-16T01:36:12.276Z,20.93
2018-05-16T01:38:43.043Z,21.06
2018-05-16T01:41:13.298Z,20.99
2018-05-16T01:43:43.998Z,21.02
2018-05-16T01:46:16.129Z,20.91
2018-05-16T01:48:56.032Z,20.87
2018-05-16T01:51:30.182Z,20.78
2018-05-16T01:54:01.063Z,20.93
2018-05-16T01:56:31.650Z,20.84
2018-05-16T01:59:03.705Z,20.84
2018-05-16T02:01:34.749Z,20.88
2018-05-16T02:04:07.789Z,20.73
2018-05-16T02:06:39.058Z,20.78
2018-05-16T02:09:10.483Z,20.52
2018-05-16T02:11:45.971Z,20.63
2018-05-16T02:14:17.377Z,20.42
2018-05-16T02:16:49.911Z,20.21
2018-05-16T02:19:23.555Z,20.22
2018-05-16T02:21:54.738Z,20.00
2018-05-16T02:24:29.439Z,19.93
2018-05-16T02:27:06.822Z,19.86
2018-05-16T02:29:39.566Z,19.97
2018-05-16T02:32:15.710Z,19.92
2018-05-16T02:34:47.856Z,19.76
2018-05-16T02:37:20.863Z,19.68
2018-05-16T02:39:52.463Z,19.65
2018-05-16T02:42:24.896Z,19.63
2018-05-16T02:44:55.219Z,19.43
2018-05-16T02:47:26.135Z,19.53
2018-05-16T02:49:57.241Z,19.42
2018-05-16T02:52:29.459Z,19.46
2018-05-16T02:55:00.185Z,19.43
2018-05-16T02:57:30.592Z,19.58
2018-05-16T03:00:00.963Z,19.36
2018-05-16T03:02:39.863Z,19.74
2018-05-16T03:05:10.614Z,19.99
2018-05-16T03:07:44.403Z,19.88
2018-05-16T03:10:15.834Z,19.47
2018-05-16T03:12:47.002Z,19.45
2018-05-16T03:15:22.446Z,19.85
2018-05-16T03:17:52.970Z,20.01
2018-05-16T03:20:30.708Z,20.05
2018-05-16T03:23:02.575Z,19.82
2018-05-16T03:25:33.372Z,19.83
2018-05-16T03:28:08.871Z,20.01
2018-05-16T03:30:40.472Z,20.08
2018-05-16T03:33:11.215Z,20.07
2018-05-16T03:35:42.368Z,19.95
2018-05-16T03:38:12.896Z,19.90
2018-05-16T03:40:43.178Z,20.03
2018-05-16T03:43:14.728Z,20.03
2018-05-16T03:45:45.462Z,19.90
2018-05-16T03:48:16.028Z,19.98
2018-05-16T03:50:46.628Z,20.04
2018-05-16T03:53:16.936Z,19.96
2018-05-16T03:55:47.475Z,19.78
2018-05-16T03:58:29.109Z,19.80
2018-05-16T04:01:11.693Z,19.70
2018-05-16T04:03:53.339Z,19.62
2018-05-16T04:06:23.898Z,19.61
2018-05-16T04:08:58.136Z,19.32
2018-05-16T04:11:29.106Z,19.41
2018-05-16T04:13:59.784Z,19.58
2018-05-16T04:16:30.375Z,19.64
2018-05-16T04:21:42.515Z,19.68
2018-05-16T04:24:19.165Z,19.57
2018-05-16T04:26:50.218Z,19.68
2018-05-16T04:29:20.718Z,19.81
2018-05-16T04:31:51.893Z,19.91
2018-05-16T04:34:23.553Z,19.84
2018-05-16T04:36:54.350Z,19.79
2018-05-16T04:39:25.586Z,19.79
2018-05-16T04:41:57.574Z,19.80
2018-05-16T04:44:31.404Z,20.05
2018-05-16T04:47:02.682Z,20.00
2018-05-16T04:49:38.258Z,19.76
2018-05-16T04:52:14.497Z,19.56
2018-05-16T04:54:47.212Z,19.48
2018-05-16T04:57:19.433Z,19.73
2018-05-16T04:59:50.025Z,20.10
2018-05-16T05:02:21.477Z,20.41
2018-05-16T05:04:53.289Z,20.67
2018-05-16T05:07:23.729Z,20.81
2018-05-16T05:09:54.278Z,21.38
2018-05-16T05:12:24.807Z,21.65
2018-05-16T05:14:55.879Z,22.00
2018-05-16T05:17:26.763Z,22.28
2018-05-16T05:19:57.370Z,22.46
2018-05-16T05:22:28.108Z,22.61
2018-05-16T05:24:59.174Z,22.28
2018-05-16T05:27:29.928Z,22.41
2018-05-16T05:30:03.640Z,22.71
2018-05-16T05:32:34.179Z,22.89
2018-05-16T05:35:05.474Z,23.04
2018-05-16T05:37:35.987Z,23.05
2018-05-16T05:40:06.457Z,23.19
2018-05-16T05:42:36.938Z,23.71
2018-05-16T05:45:08.213Z,24.01
2018-05-16T05:47:39.231Z,24.21
2018-05-16T05:50:11.087Z,24.35
2018-05-16T05:52:46.002Z,23.88
2018-05-16T05:55:16.988Z,24.25
2018-05-16T05:57:47.351Z,24.50
2018-05-16T06:00:25.619Z,24.44
2018-05-16T06:05:28.188Z,24.87
2018-05-16T06:07:58.536Z,24.84
2018-05-16T06:10:29.219Z,24.78
2018-05-16T06:13:00.267Z,24.51
2018-05-16T06:15:31.490Z,24.30
2018-05-16T06:18:02.838Z,24.52
2018-05-16T06:20:35.163Z,24.57
2018-05-16T06:25:48.093Z,25.89
2018-05-16T06:28:18.819Z,26.52
2018-05-16T06:30:56.845Z,26.52
2018-05-16T06:33:30.262Z,26.78
2018-05-16T06:36:02.963Z,26.97
2018-05-16T06:38:38.805Z,26.86
2018-05-16T06:41:12.929Z,27.41
2018-05-16T06:43:43.447Z,27.63
2018-05-16T06:46:16.756Z,27.47
2018-05-16T06:48:56.081Z,27.23
2018-05-16T06:51:41.570Z,26.72
2018-05-16T06:54:17.193Z,27.00
2018-05-16T06:56:49.760Z,27.07
2018-05-16T06:59:27.842Z,26.93
2018-05-16T07:02:02.507Z,27.41
2018-05-16T07:04:40.094Z,27.69
2018-05-16T07:07:14.021Z,27.33
2018-05-16T07:09:46.273Z,27.23
2018-05-16T07:12:18.645Z,27.64
2018-05-16T07:14:49.476Z,28.30
2018-05-16T07:17:20.939Z,28.29
2018-05-16T07:19:52.785Z,27.75
2018-05-16T07:22:24.133Z,27.42
2018-05-16T07:24:55.102Z,27.80
2018-05-16T07:27:31.830Z,27.95
2018-05-16T07:30:19.814Z,27.93
2018-05-16T07:32:51.094Z,27.73
2018-05-16T07:35:23.812Z,27.89
2018-05-16T07:37:54.668Z,28.07
2018-05-16T07:40:39.318Z,28.03
2018-05-16T07:43:17.447Z,27.89
2018-05-16T07:45:49.387Z,28.48
2018-05-16T07:48:28.413Z,27.86
2018-05-16T07:51:01.146Z,28.25
2018-05-16T07:53:31.918Z,29.05
2018-05-16T07:56:04.704Z,28.65
2018-05-16T07:58:38.588Z,28.68
2018-05-16T08:01:15.122Z,28.68
2018-05-16T08:03:48.267Z,29.26
2018-05-16T08:06:28.169Z,29.38
2018-05-16T08:09:00.583Z,29.17
2018-05-16T08:11:33.857Z,28.84
2018-05-16T08:14:04.779Z,28.50
2018-05-16T08:16:38.281Z,28.04
2018-05-16T08:19:10.425Z,27.55
2018-05-16T08:21:43.148Z,27.04
2018-05-16T08:24:17.564Z,27.32
2018-05-16T08:26:50.666Z,27.92
2018-05-16T08:29:22.436Z,28.26
2018-05-16T08:31:53.641Z,27.78
2018-05-16T08:34:47.053Z,27.96
2018-05-16T08:37:19.526Z,28.06
2018-05-16T08:39:50.859Z,27.75
2018-05-16T08:42:22.507Z,26.88
2018-05-16T08:44:54.271Z,26.45
2018-05-16T08:47:29.326Z,26.09
2018-05-16T08:50:01.684Z,25.32
2018-05-16T08:52:32.391Z,25.41
2018-05-16T08:55:09.031Z,25.09
2018-05-16T08:57:42.592Z,25.26
2018-05-16T09:00:21.142Z,25.44
2018-05-16T09:02:52.216Z,25.32
2018-05-16T09:05:23.548Z,25.14
2018-05-16T09:07:54.693Z,25.14
2018-05-16T09:10:26.196Z,25.22
2018-05-16T09:13:02.169Z,25.44
2018-05-16T09:15:44.347Z,25.47
2018-05-16T09:18:16.272Z,25.72
2018-05-16T09:20:47.010Z,25.68
2018-05-16T09:26:07.776Z,25.37
2018-05-16T09:28:39.067Z,25.63
2018-05-16T09:31:09.543Z,25.98
2018-05-16T09:33:43.665Z,26.67
2018-05-16T09:36:15.086Z,26.20
2018-05-16T09:38:46.334Z,25.94
2018-05-16T09:41:18.747Z,25.78
2018-05-16T09:43:50.588Z,25.96
2018-05-16T09:46:21.192Z,25.66
2018-05-16T09:48:52.462Z,25.54
2018-05-16T09:51:23.489Z,25.77
2018-05-16T09:53:57.586Z,25.75
2018-05-16T09:56:35.268Z,26.14
2018-05-16T09:59:08.989Z,27.02
2018-05-16T10:01:40.043Z,27.68
2018-05-16T10:04:12.910Z,27.97
2018-05-16T10:06:48.838Z,27.60
2018-05-16T10:09:24.243Z,27.54
2018-05-16T10:11:54.843Z,27.13
2018-05-16T10:14:27.843Z,27.24
2018-05-16T10:17:00.334Z,27.17
2018-05-16T10:22:07.653Z,26.81
2018-05-16T10:24:39.821Z,26.61
2018-05-16T10:27:27.247Z,26.64
2018-05-16T10:30:05.865Z,26.35
2018-05-16T10:32:51.025Z,26.09
2018-05-16T10:35:22.591Z,25.83
2018-05-16T10:37:54.148Z,25.69
2018-05-16T10:41:28.738Z,26.06
2018-05-16T10:44:01.666Z,26.63
2018-05-16T10:46:33.673Z,26.63
2018-05-16T10:49:05.350Z,26.50
2018-05-16T10:51:36.863Z,26.33
2018-05-16T10:54:07.365Z,25.73
2018-05-16T10:56:37.989Z,25.49
2018-05-16T10:59:09.322Z,25.60
2018-05-16T11:01:40.603Z,25.47
2018-05-16T11:04:11.940Z,25.65
2018-05-16T11:06:53.562Z,25.60
2018-05-16T11:09:25.561Z,25.60
2018-05-16T11:11:57.455Z,25.73
2018-05-16T11:14:29.746Z,26.21
2018-05-16T11:17:00.606Z,26.60
2018-05-16T11:19:31.640Z,26.57
2018-05-16T11:22:03.583Z,26.66
2018-05-16T11:24:40.491Z,26.90
2018-05-16T11:27:13.477Z,26.83
2018-05-16T11:29:45.426Z,26.69
2018-05-16T11:32:21.486Z,26.72
2018-05-16T11:34:53.429Z,26.35
2018-05-16T11:40:11.867Z,26.21
2018-05-16T11:45:29.388Z,26.50
2018-05-16T11:48:00.267Z,26.63
2018-05-16T11:50:31.178Z,26.70
2018-05-16T11:53:01.756Z,26.89
2018-05-16T11:55:33.716Z,27.14
2018-05-16T11:58:04.343Z,27.15
2018-05-16T12:00:36.030Z,27.12
2018-05-16T12:03:07.255Z,27.20
2018-05-16T12:05:37.809Z,27.06
2018-05-16T12:08:16.113Z,26.57
2018-05-16T12:10:48.980Z,26.27
2018-05-16T12:13:22.668Z,25.53
2018-05-16T12:15:54.493Z,25.24
2018-05-16T12:18:25.561Z,24.96
2018-05-16T12:21:11.059Z,25.20
2018-05-16T12:23:57.524Z,25.05
2018-05-16T12:26:41.340Z,24.70
2018-05-16T12:29:16.114Z,24.79
2018-05-16T12:31:47.391Z,24.63
2018-05-16T12:34:18.424Z,24.24
2018-05-16T12:36:50.057Z,24.01
2018-05-16T12:39:21.928Z,24.06
2018-05-16T12:45:09.195Z,24.26
2018-05-16T12:47:45.489Z,24.41
2018-05-16T12:50:18.728Z,24.45
2018-05-16T12:53:03.483Z,24.68
2018-05-16T12:55:35.628Z,25.09
2018-05-16T12:58:08.305Z,25.24
2018-05-16T13:00:39.528Z,25.10
2018-05-16T13:03:10.242Z,24.92
2018-05-16T13:05:42.823Z,24.69
2018-05-16T13:08:26.773Z,24.53
2018-05-16T13:11:01.733Z,24.89
2018-05-16T13:13:34.048Z,25.47
2018-05-16T13:16:06.664Z,26.44
2018-05-16T13:18:38.925Z,26.71
2018-05-16T13:21:09.993Z,26.85
2018-05-16T13:23:41.210Z,26.87
2018-05-16T13:26:12.201Z,26.82
2018-05-16T13:28:44.743Z,26.87
2018-05-16T13:31:16.908Z,26.55
2018-05-16T13:33:48.078Z,26.26
2018-05-16T13:36:20.856Z,26.36
2018-05-16T13:38:52.015Z,26.52
2018-05-16T13:41:23.156Z,26.44
2018-05-16T13:43:55.668Z,26.12
2018-05-16T13:46:29.125Z,25.62
2018-05-16T13:49:16.026Z,25.50
2018-05-16T13:51:46.452Z,25.38
2018-05-16T13:54:18.126Z,25.33
2018-05-16T13:56:48.511Z,25.38
2018-05-16T13:59:19.507Z,25.46
2018-05-16T14:01:50.646Z,25.46
2018-05-16T14:04:21.543Z,25.35
2018-05-16T14:07:03.912Z,25.42
2018-05-16T14:09:36.523Z,25.15
2018-05-16T14:12:16.204Z,25.02
2018-05-16T14:14:49.870Z,24.84
2018-05-16T14:17:22.804Z,24.77
2018-05-16T14:19:54.082Z,25.03
2018-05-16T14:22:28.133Z,24.98
2018-05-16T14:25:04.145Z,24.99
2018-05-16T14:27:41.037Z,24.94
2018-05-16T14:30:15.479Z,24.72
2018-05-16T14:33:04.308Z,24.77
2018-05-16T14:35:42.889Z,24.96
2018-05-16T14:38:20.186Z,25.28
2018-05-16T14:40:51.386Z,25.46
2018-05-16T14:43:34.130Z,25.52
2018-05-16T14:46:08.593Z,25.44
2018-05-16T14:48:41.581Z,25.55
2018-05-16T14:51:13.155Z,25.41
2018-05-16T14:53:45.964Z,25.18
2018-05-16T14:56:17.254Z,24.47
2018-05-16T14:58:47.868Z,24.72
2018-05-16T15:01:19.428Z,25.00
2018-05-16T15:03:56.546Z,25.05
2018-05-16T15:06:27.584Z,24.91
2018-05-16T15:09:07.090Z,24.63
2018-05-16T15:11:38.549Z,24.55
2018-05-16T15:14:15.973Z,24.76
2018-05-16T15:16:48.208Z,24.41
2018-05-16T15:19:19.004Z,24.07
2018-05-16T15:21:54.378Z,24.31
2018-05-16T15:24:26.280Z,24.52
2018-05-16T15:27:00.816Z,24.76
2018-05-16T15:29:35.472Z,25.04
2018-05-16T15:32:12.123Z,25.14
2018-05-16T15:37:29.588Z,25.49
2018-05-16T15:40:07.300Z,25.44
2018-05-16T15:42:42.427Z,25.37
2018-05-16T15:45:22.830Z,25.39
2018-05-16T15:47:59.195Z,25.56
2018-05-16T15:50:32.313Z,25.72
2018-05-16T15:53:22.852Z,25.50
2018-05-16T15:56:14.804Z,25.35
2018-05-16T16:01:49.503Z,25.28
2018-05-16T16:04:30.539Z,25.20
2018-05-16T16:07:06.545Z,25.39
2018-05-16T16:09:41.511Z,25.35
2018-05-16T16:12:24.686Z,25.04
2018-05-16T16:15:22.477Z,24.99
2018-05-16T16:17:53.559Z,24.92
2018-05-16T16:20:26.293Z,25.04
2018-05-16T16:23:03.811Z,24.84
2018-05-16T16:25:57.857Z,24.72
2018-05-16T16:28:31.092Z,24.47
2018-05-16T16:31:05.555Z,24.38
2018-05-16T16:33:41.704Z,24.24
2018-05-16T16:36:19.795Z,24.26
2018-05-16T16:39:02.108Z,24.16
2018-05-16T16:44:42.492Z,24.33
2018-05-16T16:47:18.609Z,24.16
2018-05-16T16:49:55.846Z,24.50
2018-05-16T16:52:36.933Z,24.71
2018-05-16T16:55:15.204Z,25.01
2018-05-16T16:57:50.349Z,25.23
2018-05-16T17:00:26.600Z,25.31
2018-05-16T17:03:09.472Z,25.39
2018-05-16T17:05:42.656Z,25.32
2018-05-16T17:08:15.292Z,25.05
2018-05-16T17:10:49.011Z,25.06
2018-05-16T17:13:20.596Z,25.15
2018-05-16T17:15:52.994Z,25.42
2018-05-16T17:18:31.226Z,25.22
2018-05-16T17:21:04.767Z,24.57
2018-05-16T17:23:40.283Z,24.29
2018-05-16T17:26:21.450Z,23.62
2018-05-16T17:29:09.902Z,23.26
2018-05-16T17:31:45.746Z,22.49
2018-05-16T17:36:57.154Z,22.06
2018-05-16T17:39:29.335Z,21.58
2018-05-16T17:44:40.947Z,21.34
2018-05-16T17:47:19.415Z,21.25
2018-05-16T17:49:53.606Z,21.22
2018-05-16T17:52:28.691Z,21.22
2018-05-16T17:54:59.785Z,21.07
2018-05-16T17:57:42.466Z,21.10
2018-05-16T18:00:21.770Z,21.11
2018-05-16T18:02:53.578Z,20.93
2018-05-16T18:05:34.608Z,21.19
2018-05-16T18:08:17.055Z,21.45
2018-05-16T18:10:52.936Z,21.49
2018-05-16T18:17:52.044Z,21.54
2018-05-16T18:20:23.662Z,21.45
2018-05-16T18:23:07.138Z,21.64
2018-05-16T18:25:39.600Z,21.77
2018-05-16T18:28:26.366Z,21.61
2018-05-16T18:31:06.707Z,21.17
2018-05-16T18:36:37.386Z,21.39
2018-05-16T18:39:12.487Z,21.18
2018-05-16T18:42:20.146Z,21.05
2018-05-16T18:47:53.480Z,20.89
2018-05-16T18:50:26.881Z,20.91
2018-05-16T18:52:58.751Z,21.05
2018-05-16T18:55:31.274Z,20.96
2018-05-16T18:58:03.279Z,21.00
2018-05-16T19:00:34.332Z,21.27
2018-05-16T19:03:05.843Z,21.11
2018-05-16T19:05:43.668Z,21.09
2018-05-16T19:08:19.136Z,21.17
2018-05-16T19:10:53.898Z,21.01
2018-05-16T19:13:25.766Z,21.09
2018-05-16T19:16:05.510Z,20.95
2018-05-16T19:18:37.522Z,20.79
2018-05-16T19:21:18.845Z,20.73
2018-05-16T19:24:01.938Z,20.66
2018-05-16T19:26:35.275Z,20.67
2018-05-16T19:29:06.360Z,20.68
2018-05-16T19:31:45.205Z,20.61
2018-05-16T19:34:21.633Z,20.70
2018-05-16T19:36:52.813Z,20.72
2018-05-16T19:39:23.984Z,20.71
2018-05-16T19:41:55.452Z,20.90
2018-05-16T19:44:26.193Z,21.03
2018-05-16T19:46:57.400Z,20.94
2018-05-16T19:49:28.677Z,20.70
2018-05-16T19:51:59.020Z,20.54
2018-05-16T19:54:30.562Z,20.63
2018-05-16T19:57:01.747Z,20.57
2018-05-16T19:59:36.710Z,20.30
2018-05-16T20:02:09.350Z,20.52
2018-05-16T20:04:40.008Z,20.39
2018-05-16T20:07:10.359Z,20.52
2018-05-16T20:10:11.494Z,20.58
2018-05-16T20:12:43.700Z,20.58
2018-05-16T20:15:18.183Z,20.60
2018-05-16T20:17:49.454Z,20.56
2018-05-16T20:20:20.208Z,20.56
2018-05-16T20:22:54.626Z,20.33
2018-05-16T20:25:27.397Z,20.14
2018-05-16T20:28:11.114Z,20.15
2018-05-16T20:30:46.420Z,20.02
2018-05-16T20:33:18.158Z,20.06
2018-05-16T20:35:50.128Z,20.23
2018-05-16T20:38:20.873Z,20.14
2018-05-16T20:40:57.066Z,20.04
2018-05-16T20:43:28.437Z,19.87
2018-05-16T20:45:59.834Z,19.82
2018-05-16T20:48:31.305Z,19.58
2018-05-16T20:51:02.101Z,19.57
2018-05-16T20:53:41.792Z,19.52
2018-05-16T20:56:14.310Z,19.48
2018-05-16T20:58:46.105Z,19.39
2018-05-16T21:01:18.346Z,19.30
2018-05-16T21:03:51.554Z,19.42
2018-05-16T21:06:22.613Z,19.44
2018-05-16T21:08:53.041Z,19.40
2018-05-16T21:11:26.554Z,19.14
2018-05-16T21:13:59.220Z,19.10
2018-05-16T21:16:30.654Z,19.05
2018-05-16T21:19:01.832Z,18.98
2018-05-16T21:21:32.169Z,18.95
2018-05-16T21:24:05.719Z,18.91
2018-05-16T21:26:37.081Z,18.64
2018-05-16T21:32:03.234Z,18.57
2018-05-16T21:34:33.713Z,18.45
2018-05-16T21:37:05.316Z,18.43
2018-05-16T21:39:36.786Z,18.32
2018-05-16T21:42:08.831Z,18.31
2018-05-16T21:44:43.268Z,18.30
2018-05-16T21:47:18.329Z,18.32
2018-05-16T21:49:52.048Z,18.23
2018-05-16T21:52:24.977Z,18.20
2018-05-16T21:55:03.391Z,18.15
2018-05-16T21:57:40.519Z,18.10
2018-05-16T22:00:27.497Z,17.78
2018-05-16T22:02:58.268Z,17.82
2018-05-16T22:05:29.049Z,17.66
2018-05-16T22:10:44.880Z,17.49
2018-05-16T22:13:17.442Z,17.48
2018-05-16T22:15:49.291Z,17.38
2018-05-16T22:18:23.235Z,17.29
2018-05-16T22:20:54.009Z,17.25
2018-05-16T22:23:29.057Z,17.10
2018-05-16T22:26:03.450Z,17.06
2018-05-16T22:28:39.495Z,17.09
2018-05-16T22:31:19.564Z,16.97
2018-05-16T22:33:56.553Z,16.93
2018-05-16T22:36:35.952Z,16.97
2018-05-16T22:39:18.840Z,16.95
2018-05-16T22:41:58.676Z,17.02
2018-05-16T22:44:29.910Z,16.86
2018-05-16T22:49:57.610Z,16.51
2018-05-16T22:52:28.319Z,16.40
2018-05-16T22:54:58.691Z,16.44
2018-05-16T22:57:29.058Z,16.31
2018-05-16T22:59:59.798Z,16.35
2018-05-16T23:02:31.826Z,16.28
2018-05-16T23:05:04.154Z,16.27
2018-05-16T23:07:34.616Z,16.14
2018-05-16T23:10:05.160Z,16.22
2018-05-16T23:12:35.892Z,16.25
2018-05-16T23:15:07.114Z,16.29
2018-05-16T23:17:42.354Z,16.17
2018-05-16T23:20:15.437Z,16.05
2018-05-16T23:22:46.175Z,16.06
2018-05-16T23:25:16.677Z,16.07
2018-05-16T23:27:47.207Z,16.00
2018-05-16T23:30:18.303Z,16.11
2018-05-16T23:32:51.479Z,16.09
2018-05-16T23:35:33.929Z,16.08
2018-05-16T23:38:05.742Z,16.04
2018-05-16T23:40:45.067Z,16.14
2018-05-16T23:43:17.857Z,15.97
2018-05-16T23:45:49.096Z,15.84
2018-05-16T23:48:19.497Z,15.78
2018-05-16T23:50:50.279Z,15.75
2018-05-16T23:53:20.639Z,15.75
2018-05-16T23:55:51.703Z,15.72
2018-05-16T23:58:23.172Z,15.70
